createdAt,value
2023-05-09T00:01:55.618Z,18.38
2023-05-09T00:06:57.469Z,18.45
2023-05-09T00:11:59.271Z,20.65
2023-05-09T00:17:01.077Z,16.38
2023-05-09T00:22:02.864Z,16.50
2023-05-09T00:27:04.816Z,20.65
2023-05-09T00:32:06.703Z,16.38
2023-05-09T00:37:08.595Z,19.65
2023-05-09T00:42:10.389Z,18.63
2023-05-09T00:47:12.126Z,16.90
2023-05-09T00:52:13.828Z,17.17
2023-05-09T00:57:17.609Z,17.83
2023-05-09T01:02:20.633Z,17.25
2023-05-09T01:07:31.135Z,18.70
2023-05-09T01:13:10.292Z,20.30
2023-05-09T01:18:20.038Z,20.65
2023-05-09T01:23:30.703Z,23.38
2023-05-09T01:29:01.576Z,20.33
2023-05-09T01:34:05.746Z,22.98
2023-05-09T01:39:10.158Z,17.80
2023-05-09T01:44:13.810Z,15.15
2023-05-09T01:49:17.578Z,26.02
2023-05-09T01:54:20.699Z,19.95
2023-05-09T01:59:23.944Z,17.65
2023-05-09T02:04:26.842Z,16.65
2023-05-09T02:09:28.703Z,21.70
2023-05-09T02:14:31.731Z,17.02
2023-05-09T02:19:35.507Z,17.35
2023-05-09T02:24:37.450Z,19.65
2023-05-09T02:29:45.881Z,20.50
2023-05-09T02:34:49.036Z,21.65
2023-05-09T02:39:50.966Z,18.65
2023-05-09T02:44:54.082Z,20.55
2023-05-09T02:49:55.975Z,16.10
2023-05-09T02:54:58.752Z,19.40
2023-05-09T03:00:00.482Z,17.33
2023-05-09T03:05:03.217Z,20.00
2023-05-09T03:10:06.000Z,23.88
2023-05-09T03:15:08.858Z,25.98
2023-05-09T03:20:11.361Z,21.77
2023-05-09T03:25:13.420Z,23.60
2023-05-09T03:30:15.657Z,17.50
2023-05-09T03:35:17.534Z,18.08
2023-05-09T03:40:19.535Z,19.40
2023-05-09T03:45:21.397Z,16.27
2023-05-09T03:50:23.265Z,17.02
2023-05-09T03:55:25.149Z,26.77
2023-05-09T04:00:27.142Z,23.60
2023-05-09T04:05:29.139Z,30.58
2023-05-09T04:10:32.169Z,25.67
2023-05-09T04:15:34.598Z,27.02
2023-05-09T04:20:36.548Z,28.17
2023-05-09T04:25:38.381Z,26.55
2023-05-09T04:30:40.228Z,24.42
2023-05-09T04:35:42.009Z,26.65
2023-05-09T04:40:43.746Z,28.90
2023-05-09T04:45:46.550Z,28.25
2023-05-09T04:50:51.227Z,27.33
2023-05-09T04:55:53.309Z,29.63
2023-05-09T05:00:56.174Z,23.98
2023-05-09T05:05:58.274Z,33.45
2023-05-09T05:11:00.290Z,25.73
2023-05-09T05:16:02.123Z,27.17
2023-05-09T05:21:04.010Z,29.98
2023-05-09T05:26:05.765Z,29.10
2023-05-09T05:31:07.571Z,26.52
2023-05-09T05:36:09.645Z,29.02
2023-05-09T05:41:11.619Z,30.05
2023-05-09T05:46:13.430Z,28.80
2023-05-09T05:51:15.322Z,24.27
2023-05-09T05:56:17.632Z,28.58
2023-05-09T06:01:19.485Z,26.52
2023-05-09T06:06:22.152Z,21.13
2023-05-09T06:11:24.000Z,22.17
2023-05-09T06:16:25.879Z,25.85
2023-05-09T06:21:27.681Z,21.45
2023-05-09T06:26:29.978Z,19.60
2023-05-09T06:31:32.152Z,23.65
2023-05-09T06:36:34.546Z,21.58
2023-05-09T06:41:37.387Z,21.80
2023-05-09T06:46:39.269Z,21.02
2023-05-09T06:51:41.181Z,24.13
2023-05-09T06:56:43.092Z,20.33
2023-05-09T07:01:44.971Z,22.38
2023-05-09T07:06:47.624Z,21.92
2023-05-09T07:11:49.412Z,20.17
2023-05-09T07:16:51.341Z,17.17
2023-05-09T07:21:53.241Z,21.75
2023-05-09T07:26:55.081Z,21.67
2023-05-09T07:31:56.861Z,16.55
2023-05-09T07:36:58.797Z,16.10
2023-05-09T07:42:00.659Z,17.63
2023-05-09T07:47:02.667Z,13.13
2023-05-09T07:52:04.702Z,14.38
2023-05-09T07:57:06.426Z,16.45
2023-05-09T08:02:08.815Z,13.98
2023-05-09T08:07:11.948Z,14.15
2023-05-09T08:12:13.762Z,13.60
2023-05-09T08:17:16.277Z,12.43
2023-05-09T08:22:18.997Z,15.93
2023-05-09T08:27:20.804Z,19.55
2023-05-09T08:32:22.595Z,15.05
2023-05-09T08:37:24.614Z,16.27
2023-05-09T08:42:27.569Z,11.35
2023-05-09T08:47:30.046Z,12.30
2023-05-09T08:52:35.380Z,7.35
2023-05-09T08:57:37.413Z,8.02
2023-05-09T09:02:42.795Z,6.93
2023-05-09T09:07:46.113Z,12.63
2023-05-09T09:12:50.170Z,7.47
2023-05-09T09:17:56.911Z,11.52
2023-05-09T09:23:03.954Z,7.20
2023-05-09T09:28:06.018Z,6.95
2023-05-09T09:33:07.877Z,6.90
2023-05-09T09:38:09.616Z,7.60
2023-05-09T09:43:11.445Z,8.27
2023-05-09T09:48:13.169Z,7.43
2023-05-09T09:53:15.069Z,9.93
2023-05-09T09:58:25.024Z,7.03
2023-05-09T10:03:36.324Z,9.10
2023-05-09T10:08:38.770Z,8.68
2023-05-09T10:13:40.740Z,5.72
2023-05-09T10:18:43.016Z,7.63
2023-05-09T10:23:48.628Z,4.80
2023-05-09T10:28:55.785Z,5.00
2023-05-09T10:34:05.443Z,6.68
2023-05-09T10:39:07.977Z,5.38
2023-05-09T10:44:10.319Z,4.75
2023-05-09T10:49:12.623Z,4.68
2023-05-09T10:54:30.554Z,5.63
2023-05-09T10:59:38.833Z,6.20
2023-05-09T11:04:40.860Z,6.20
2023-05-09T11:09:42.689Z,6.00
2023-05-09T11:14:47.343Z,6.05
2023-05-09T11:19:51.769Z,6.15
2023-05-09T11:25:14.315Z,5.18
2023-05-09T11:30:18.304Z,4.50
2023-05-09T11:35:22.323Z,9.45
2023-05-09T11:40:24.497Z,5.88
2023-05-09T11:45:31.608Z,10.98
2023-05-09T11:50:33.844Z,7.82
2023-05-09T11:55:38.078Z,6.38
2023-05-09T12:00:46.084Z,7.45
2023-05-09T12:05:51.066Z,6.60
2023-05-09T12:10:52.821Z,6.07
2023-05-09T12:16:02.689Z,5.35
2023-05-09T12:21:05.649Z,3.83
2023-05-09T12:26:07.523Z,5.75
2023-05-09T12:31:09.612Z,7.40
2023-05-09T12:36:13.716Z,7.32
2023-05-09T12:41:35.062Z,5.20
2023-05-09T12:46:41.449Z,8.82
2023-05-09T12:51:50.178Z,7.35
2023-05-09T12:56:53.485Z,6.63
2023-05-09T13:02:00.084Z,4.30
2023-05-09T13:07:08.277Z,3.22
2023-05-09T13:12:10.160Z,2.95
2023-05-09T13:17:12.035Z,2.08
2023-05-09T13:22:13.997Z,3.08
2023-05-09T13:27:16.523Z,2.78
2023-05-09T13:32:18.315Z,5.82
2023-05-09T13:37:20.175Z,5.88
2023-05-09T13:42:21.956Z,6.28
2023-05-09T13:47:24.055Z,3.08
2023-05-09T13:52:26.107Z,3.15
2023-05-09T13:57:28.036Z,3.65
2023-05-09T14:02:29.822Z,3.72
2023-05-09T14:07:31.654Z,3.60
2023-05-09T14:12:33.605Z,5.63
2023-05-09T14:17:35.481Z,1.90
2023-05-09T14:22:37.384Z,4.50
2023-05-09T14:27:39.262Z,2.42
2023-05-09T14:32:41.065Z,1.90
2023-05-09T14:37:43.151Z,2.10
2023-05-09T14:42:45.383Z,2.28
2023-05-09T14:47:48.090Z,3.88
2023-05-09T14:52:50.974Z,2.28
2023-05-09T14:57:52.681Z,5.32
2023-05-09T15:02:54.514Z,3.63
2023-05-09T15:07:56.361Z,3.30
2023-05-09T15:12:58.322Z,2.05
2023-05-09T15:18:02.226Z,3.53
2023-05-09T15:23:04.030Z,2.95
2023-05-09T15:28:06.928Z,2.95
2023-05-09T15:33:08.995Z,2.35
2023-05-09T15:38:12.216Z,2.13
2023-05-09T15:43:14.048Z,2.65
2023-05-09T15:48:16.684Z,2.97
2023-05-09T15:53:18.465Z,3.03
2023-05-09T15:58:20.201Z,2.20
2023-05-09T16:03:23.255Z,4.75
2023-05-09T16:08:25.187Z,7.00
2023-05-09T16:13:27.333Z,3.00
2023-05-09T16:18:29.283Z,2.30
2023-05-09T16:23:31.058Z,2.28
2023-05-09T16:28:32.837Z,11.25
2023-05-09T16:33:35.045Z,12.80
2023-05-09T16:38:36.870Z,8.90
2023-05-09T16:43:40.137Z,7.60
2023-05-09T16:48:41.873Z,5.65
2023-05-09T16:53:43.834Z,3.20
2023-05-09T16:58:45.577Z,4.32
2023-05-09T17:03:48.110Z,2.72
2023-05-09T17:08:49.905Z,2.85
2023-05-09T17:13:51.665Z,4.32
2023-05-09T17:18:53.393Z,13.68
2023-05-09T17:23:55.525Z,4.07
2023-05-09T17:28:57.319Z,2.97
2023-05-09T17:33:59.035Z,4.40
2023-05-09T17:39:01.011Z,6.07
2023-05-09T17:44:02.829Z,7.00
2023-05-09T17:49:07.665Z,6.25
2023-05-09T17:54:10.511Z,3.05
2023-05-09T17:59:12.279Z,3.47
2023-05-09T18:04:14.382Z,4.72
2023-05-09T18:09:16.244Z,6.07
2023-05-09T18:14:18.081Z,14.63
2023-05-09T18:19:19.906Z,12.73
2023-05-09T18:24:21.898Z,4.18
2023-05-09T18:29:23.792Z,17.55
2023-05-09T18:34:25.769Z,7.47
2023-05-09T18:39:27.578Z,50.83
2023-05-09T18:44:29.899Z,11.85
2023-05-09T18:49:31.846Z,13.30
2023-05-09T18:54:33.545Z,12.65
2023-05-09T18:59:35.329Z,14.15
2023-05-09T19:04:37.196Z,15.60
2023-05-09T19:09:40.144Z,13.52
2023-05-09T19:14:43.359Z,6.10
2023-05-09T19:19:45.093Z,4.90
2023-05-09T19:24:46.926Z,5.40
2023-05-09T19:29:49.952Z,7.85
2023-05-09T19:34:52.044Z,12.77
2023-05-09T19:39:53.906Z,6.03
2023-05-09T19:44:57.232Z,3.97
2023-05-09T19:49:59.036Z,4.95
2023-05-09T19:55:01.443Z,14.50
2023-05-09T20:00:03.569Z,5.53
2023-05-09T20:05:05.728Z,10.55
2023-05-09T20:10:08.370Z,4.25
2023-05-09T20:15:10.488Z,7.60
2023-05-09T20:20:12.368Z,10.32
2023-05-09T20:25:14.765Z,8.60
2023-05-09T20:30:17.375Z,6.00
2023-05-09T20:35:19.527Z,3.53
2023-05-09T20:40:21.267Z,7.15
2023-05-09T20:45:23.123Z,2.92
2023-05-09T20:50:25.104Z,4.88
2023-05-09T20:55:27.135Z,4.13
2023-05-09T21:00:47.001Z,3.20
2023-05-09T21:05:49.123Z,3.30
2023-05-09T21:10:52.658Z,3.90
2023-05-09T21:15:54.427Z,10.48
2023-05-09T21:21:11.475Z,5.88
2023-05-09T21:26:13.337Z,3.17
2023-05-09T21:31:15.086Z,3.75
2023-05-09T21:36:16.825Z,10.70
2023-05-09T21:41:18.596Z,3.75
2023-05-09T21:46:20.348Z,3.13
2023-05-09T21:51:22.230Z,5.25
2023-05-09T21:56:24.051Z,3.47
2023-05-09T22:01:25.803Z,3.80
2023-05-09T22:06:27.978Z,2.42
2023-05-09T22:11:29.946Z,3.35
2023-05-09T22:16:31.763Z,4.15
2023-05-09T22:21:33.595Z,2.45
2023-05-09T22:26:50.752Z,3.38
2023-05-09T22:31:52.554Z,4.68
2023-05-09T22:36:55.058Z,1.35
2023-05-09T22:41:57.932Z,5.32
2023-05-09T22:46:59.721Z,1.10
2023-05-09T22:52:01.658Z,2.38
2023-05-09T22:57:06.706Z,3.25
2023-05-09T23:02:09.217Z,1.92
2023-05-09T23:07:11.060Z,1.70
2023-05-09T23:12:12.809Z,1.25
2023-05-09T23:17:14.574Z,3.13
2023-05-09T23:22:19.450Z,6.15
2023-05-09T23:27:21.609Z,3.65
2023-05-09T23:32:23.516Z,0.77
2023-05-09T23:37:40.348Z,0.77
2023-05-09T23:42:46.192Z,1.08
2023-05-09T23:47:48.040Z,1.25
2023-05-09T23:52:53.335Z,0.90
2023-05-09T23:57:55.060Z,2.08
